sensor_id;sensor_type;location;lat;lon;timestamp;temperature;humidity
41447;DHT22;27185;52.040;4.490;2023-10-09T00:02:28;17.60;99.90
41447;DHT22;27185;52.040;4.490;2023-10-09T00:05:15;17.70;99.90
41447;DHT22;27185;52.040;4.490;2023-10-09T00:08:09;17.70;99.90
41447;DHT22;27185;52.040;4.490;2023-10-09T00:10:54;17.70;99.90
41447;DHT22;27185;52.040;4.490;2023-10-09T00:13:40;17.70;99.90
41447;DHT22;27185;52.040;4.490;2023-10-09T00:16:37;17.80;99.90
41447;DHT22;27185;52.040;4.490;2023-10-09T00:19:32;17.80;99.90
41447;DHT22;27185;52.040;4.490;2023-10-09T00:22:18;17.80;99.90
41447;DHT22;27185;52.040;4.490;2023-10-09T00:25:10;17.90;99.90
41447;DHT22;27185;52.040;4.490;2023-10-09T00:27:56;17.90;99.90
41447;DHT22;27185;52.040;4.490;2023-10-09T00:30:45;17.90;99.90
41447;DHT22;27185;52.040;4.490;2023-10-09T00:33:30;17.90;99.90
41447;DHT22;27185;52.040;4.490;2023-10-09T00:36:16;18.00;99.90
41447;DHT22;27185;52.040;4.490;2023-10-09T00:39:05;18.00;99.90
41447;DHT22;27185;52.040;4.490;2023-10-09T00:42:03;18.00;99.90
41447;DHT22;27185;52.040;4.490;2023-10-09T00:44:52;18.00;99.90
41447;DHT22;27185;52.040;4.490;2023-10-09T00:47:37;18.00;99.90
41447;DHT22;27185;52.040;4.490;2023-10-09T00:50:26;18.10;99.90
41447;DHT22;27185;52.040;4.490;2023-10-09T00:53:12;18.10;99.90
41447;DHT22;27185;52.040;4.490;2023-10-09T00:56:04;18.10;99.90
41447;DHT22;27185;52.040;4.490;2023-10-09T00:59:04;18.10;99.90
41447;DHT22;27185;52.040;4.490;2023-10-09T01:02:00;18.20;99.90
41447;DHT22;27185;52.040;4.490;2023-10-09T01:04:50;18.20;99.90
41447;DHT22;27185;52.040;4.490;2023-10-09T01:07:37;18.20;99.90
41447;DHT22;27185;52.040;4.490;2023-10-09T01:10:25;18.30;99.90
41447;DHT22;27185;52.040;4.490;2023-10-09T01:13:19;18.30;99.90
41447;DHT22;27185;52.040;4.490;2023-10-09T01:16:06;18.30;99.90
41447;DHT22;27185;52.040;4.490;2023-10-09T01:18:53;18.30;99.90
41447;DHT22;27185;52.040;4.490;2023-10-09T01:21:42;18.40;99.90
41447;DHT22;27185;52.040;4.490;2023-10-09T01:24:27;18.40;99.90
41447;DHT22;27185;52.040;4.490;2023-10-09T01:27:17;18.40;99.90
41447;DHT22;27185;52.040;4.490;2023-10-09T01:30:02;18.40;99.90
41447;DHT22;27185;52.040;4.490;2023-10-09T01:32:48;18.40;99.90
41447;DHT22;27185;52.040;4.490;2023-10-09T01:35:34;18.50;99.90
41447;DHT22;27185;52.040;4.490;2023-10-09T01:38:19;18.50;99.90
41447;DHT22;27185;52.040;4.490;2023-10-09T01:41:15;18.50;99.90
41447;DHT22;27185;52.040;4.490;2023-10-09T01:44:01;18.50;99.90
41447;DHT22;27185;52.040;4.490;2023-10-09T01:46:50;18.50;99.90
41447;DHT22;27185;52.040;4.490;2023-10-09T01:49:43;18.60;99.90
41447;DHT22;27185;52.040;4.490;2023-10-09T01:52:34;18.60;99.90
41447;DHT22;27185;52.040;4.490;2023-10-09T01:55:21;18.60;99.90
41447;DHT22;27185;52.040;4.490;2023-10-09T01:58:25;18.60;99.90
41447;DHT22;27185;52.040;4.490;2023-10-09T02:01:13;18.60;99.90
41447;DHT22;27185;52.040;4.490;2023-10-09T02:04:00;18.60;99.90
41447;DHT22;27185;52.040;4.490;2023-10-09T02:06:53;18.60;99.90
41447;DHT22;27185;52.040;4.490;2023-10-09T02:09:38;18.50;99.90
41447;DHT22;27185;52.040;4.490;2023-10-09T02:12:31;18.50;99.90
41447;DHT22;27185;52.040;4.490;2023-10-09T02:15:19;18.50;99.90
41447;DHT22;27185;52.040;4.490;2023-10-09T02:18:24;18.50;99.90
41447;DHT22;27185;52.040;4.490;2023-10-09T02:21:19;18.50;99.90
41447;DHT22;27185;52.040;4.490;2023-10-09T02:24:18;18.50;99.90
41447;DHT22;27185;52.040;4.490;2023-10-09T02:27:24;18.60;99.90
41447;DHT22;27185;52.040;4.490;2023-10-09T02:30:31;18.60;99.90
41447;DHT22;27185;52.040;4.490;2023-10-09T02:33:19;18.60;99.90
41447;DHT22;27185;52.040;4.490;2023-10-09T02:36:13;18.70;99.90
41447;DHT22;27185;52.040;4.490;2023-10-09T02:38:58;18.70;99.90
41447;DHT22;27185;52.040;4.490;2023-10-09T02:41:44;18.80;99.90
41447;DHT22;27185;52.040;4.490;2023-10-09T02:44:35;18.80;99.90
41447;DHT22;27185;52.040;4.490;2023-10-09T02:47:25;18.80;99.90
41447;DHT22;27185;52.040;4.490;2023-10-09T02:50:23;18.90;99.90
41447;DHT22;27185;52.040;4.490;2023-10-09T02:53:13;18.90;99.90
41447;DHT22;27185;52.040;4.490;2023-10-09T02:56:04;18.90;99.90
41447;DHT22;27185;52.040;4.490;2023-10-09T02:58:59;18.90;99.90
41447;DHT22;27185;52.040;4.490;2023-10-09T03:01:51;18.90;99.90
41447;DHT22;27185;52.040;4.490;2023-10-09T03:04:38;18.90;99.90
41447;DHT22;27185;52.040;4.490;2023-10-09T03:07:24;18.90;99.90
41447;DHT22;27185;52.040;4.490;2023-10-09T03:10:10;18.90;99.90
41447;DHT22;27185;52.040;4.490;2023-10-09T03:12:56;19.00;99.90
41447;DHT22;27185;52.040;4.490;2023-10-09T03:15:42;19.00;99.90
41447;DHT22;27185;52.040;4.490;2023-10-09T03:18:30;19.00;99.90
41447;DHT22;27185;52.040;4.490;2023-10-09T03:21:16;19.00;99.90
41447;DHT22;27185;52.040;4.490;2023-10-09T03:24:02;19.00;99.90
41447;DHT22;27185;52.040;4.490;2023-10-09T03:26:50;19.00;99.90
41447;DHT22;27185;52.040;4.490;2023-10-09T03:29:35;19.00;99.90
41447;DHT22;27185;52.040;4.490;2023-10-09T03:32:22;19.10;99.90
41447;DHT22;27185;52.040;4.490;2023-10-09T03:35:08;19.00;99.90
41447;DHT22;27185;52.040;4.490;2023-10-09T03:37:56;19.00;99.90
41447;DHT22;27185;52.040;4.490;2023-10-09T03:40:45;19.00;99.90
41447;DHT22;27185;52.040;4.490;2023-10-09T03:43:37;19.00;99.90
41447;DHT22;27185;52.040;4.490;2023-10-09T03:46:24;19.00;99.90
41447;DHT22;27185;52.040;4.490;2023-10-09T03:49:18;19.00;99.90
41447;DHT22;27185;52.040;4.490;2023-10-09T03:52:09;19.10;99.90
41447;DHT22;27185;52.040;4.490;2023-10-09T03:54:55;19.20;99.90
41447;DHT22;27185;52.040;4.490;2023-10-09T03:57:40;19.20;99.90
41447;DHT22;27185;52.040;4.490;2023-10-09T04:00:28;19.30;99.90
41447;DHT22;27185;52.040;4.490;2023-10-09T04:03:15;19.40;99.90
41447;DHT22;27185;52.040;4.490;2023-10-09T04:06:01;19.40;99.90
41447;DHT22;27185;52.040;4.490;2023-10-09T04:08:49;19.50;99.90
41447;DHT22;27185;52.040;4.490;2023-10-09T04:11:36;19.50;99.90
41447;DHT22;27185;52.040;4.490;2023-10-09T04:14:22;19.60;99.90
41447;DHT22;27185;52.040;4.490;2023-10-09T04:17:17;19.60;99.90
41447;DHT22;27185;52.040;4.490;2023-10-09T04:20:18;19.70;99.90
41447;DHT22;27185;52.040;4.490;2023-10-09T04:23:04;19.70;99.90
41447;DHT22;27185;52.040;4.490;2023-10-09T04:25:52;19.80;99.90
41447;DHT22;27185;52.040;4.490;2023-10-09T04:28:38;19.80;99.90
41447;DHT22;27185;52.040;4.490;2023-10-09T04:31:24;19.90;99.90
41447;DHT22;27185;52.040;4.490;2023-10-09T04:34:18;19.90;99.90
41447;DHT22;27185;52.040;4.490;2023-10-09T04:37:07;20.00;99.90
41447;DHT22;27185;52.040;4.490;2023-10-09T04:39:59;20.00;99.90
41447;DHT22;27185;52.040;4.490;2023-10-09T04:42:57;20.00;99.90
41447;DHT22;27185;52.040;4.490;2023-10-09T04:45:51;20.00;99.90
41447;DHT22;27185;52.040;4.490;2023-10-09T04:48:54;20.10;99.90
41447;DHT22;27185;52.040;4.490;2023-10-09T04:51:40;20.10;99.90
41447;DHT22;27185;52.040;4.490;2023-10-09T04:54:41;20.10;99.90
41447;DHT22;27185;52.040;4.490;2023-10-09T04:57:47;20.10;99.90
41447;DHT22;27185;52.040;4.490;2023-10-09T05:00:46;20.10;99.90
41447;DHT22;27185;52.040;4.490;2023-10-09T05:03:31;20.10;99.90
41447;DHT22;27185;52.040;4.490;2023-10-09T05:06:26;20.10;99.90
41447;DHT22;27185;52.040;4.490;2023-10-09T05:09:40;20.10;99.90
41447;DHT22;27185;52.040;4.490;2023-10-09T05:12:41;20.10;99.90
41447;DHT22;27185;52.040;4.490;2023-10-09T05:15:32;20.10;99.90
41447;DHT22;27185;52.040;4.490;2023-10-09T05:18:19;20.10;99.90
41447;DHT22;27185;52.040;4.490;2023-10-09T05:21:12;20.20;99.90
41447;DHT22;27185;52.040;4.490;2023-10-09T05:24:02;20.20;99.90
41447;DHT22;27185;52.040;4.490;2023-10-09T05:26:58;20.10;99.90
41447;DHT22;27185;52.040;4.490;2023-10-09T05:30:04;20.20;99.90
41447;DHT22;27185;52.040;4.490;2023-10-09T05:33:10;20.20;99.90
41447;DHT22;27185;52.040;4.490;2023-10-09T05:36:13;20.20;99.90
41447;DHT22;27185;52.040;4.490;2023-10-09T05:39:11;20.30;99.90
41447;DHT22;27185;52.040;4.490;2023-10-09T05:42:22;20.30;99.90
41447;DHT22;27185;52.040;4.490;2023-10-09T05:45:17;20.30;99.90
41447;DHT22;27185;52.040;4.490;2023-10-09T05:48:03;20.30;99.90
41447;DHT22;27185;52.040;4.490;2023-10-09T05:50:49;20.30;99.90
41447;DHT22;27185;52.040;4.490;2023-10-09T05:53:53;20.30;99.90
41447;DHT22;27185;52.040;4.490;2023-10-09T05:56:57;20.40;99.90
41447;DHT22;27185;52.040;4.490;2023-10-09T06:00:05;20.30;99.90
41447;DHT22;27185;52.040;4.490;2023-10-09T06:03:10;20.30;99.90
41447;DHT22;27185;52.040;4.490;2023-10-09T06:06:04;20.20;99.90
41447;DHT22;27185;52.040;4.490;2023-10-09T06:08:51;20.20;99.90
41447;DHT22;27185;52.040;4.490;2023-10-09T06:11:55;20.20;99.90
41447;DHT22;27185;52.040;4.490;2023-10-09T06:15:04;20.20;99.90
41447;DHT22;27185;52.040;4.490;2023-10-09T06:18:05;20.10;99.90
41447;DHT22;27185;52.040;4.490;2023-10-09T06:21:09;20.10;99.90
41447;DHT22;27185;52.040;4.490;2023-10-09T06:24:12;20.10;99.90
41447;DHT22;27185;52.040;4.490;2023-10-09T06:26:58;20.10;99.90
41447;DHT22;27185;52.040;4.490;2023-10-09T06:29:44;20.00;99.90
41447;DHT22;27185;52.040;4.490;2023-10-09T06:32:29;20.00;99.90
41447;DHT22;27185;52.040;4.490;2023-10-09T06:35:22;20.00;99.90
41447;DHT22;27185;52.040;4.490;2023-10-09T06:38:08;20.10;99.90
41447;DHT22;27185;52.040;4.490;2023-10-09T06:41:07;20.10;99.90
41447;DHT22;27185;52.040;4.490;2023-10-09T06:43:55;20.10;99.90
41447;DHT22;27185;52.040;4.490;2023-10-09T06:46:41;20.10;99.90
41447;DHT22;27185;52.040;4.490;2023-10-09T06:49:29;20.10;99.90
41447;DHT22;27185;52.040;4.490;2023-10-09T06:52:15;20.10;99.90
41447;DHT22;27185;52.040;4.490;2023-10-09T06:55:00;20.20;99.90
41447;DHT22;27185;52.040;4.490;2023-10-09T06:57:54;20.20;99.90
41447;DHT22;27185;52.040;4.490;2023-10-09T07:00:40;20.20;99.90
41447;DHT22;27185;52.040;4.490;2023-10-09T07:03:43;20.20;99.90
41447;DHT22;27185;52.040;4.490;2023-10-09T07:06:38;20.30;99.90
41447;DHT22;27185;52.040;4.490;2023-10-09T07:09:24;20.30;99.90
41447;DHT22;27185;52.040;4.490;2023-10-09T07:12:13;20.40;99.90
41447;DHT22;27185;52.040;4.490;2023-10-09T07:15:06;20.40;99.90
41447;DHT22;27185;52.040;4.490;2023-10-09T07:17:52;20.40;99.90
41447;DHT22;27185;52.040;4.490;2023-10-09T07:20:38;20.40;99.90
41447;DHT22;27185;52.040;4.490;2023-10-09T07:23:24;20.40;99.90
41447;DHT22;27185;52.040;4.490;2023-10-09T07:26:13;20.40;99.90
41447;DHT22;27185;52.040;4.490;2023-10-09T07:29:08;20.40;99.90
41447;DHT22;27185;52.040;4.490;2023-10-09T07:32:01;20.40;99.90
41447;DHT22;27185;52.040;4.490;2023-10-09T07:34:57;20.40;99.90
41447;DHT22;27185;52.040;4.490;2023-10-09T07:37:44;20.50;99.90
41447;DHT22;27185;52.040;4.490;2023-10-09T07:40:39;20.40;99.90
41447;DHT22;27185;52.040;4.490;2023-10-09T07:43:44;20.50;99.90
41447;DHT22;27185;52.040;4.490;2023-10-09T07:46:29;20.60;99.90
41447;DHT22;27185;52.040;4.490;2023-10-09T07:49:15;20.60;99.90
41447;DHT22;27185;52.040;4.490;2023-10-09T07:52:09;20.70;99.90
41447;DHT22;27185;52.040;4.490;2023-10-09T07:54:55;20.70;99.90
41447;DHT22;27185;52.040;4.490;2023-10-09T07:57:47;20.80;99.90
41447;DHT22;27185;52.040;4.490;2023-10-09T08:00:38;20.80;99.90
41447;DHT22;27185;52.040;4.490;2023-10-09T08:03:43;20.90;99.90
41447;DHT22;27185;52.040;4.490;2023-10-09T08:06:31;21.00;99.90
41447;DHT22;27185;52.040;4.490;2023-10-09T08:09:31;21.00;99.90
41447;DHT22;27185;52.040;4.490;2023-10-09T08:12:32;21.00;99.90
41447;DHT22;27185;52.040;4.490;2023-10-09T08:15:29;21.10;99.90
41447;DHT22;27185;52.040;4.490;2023-10-09T08:18:36;21.20;99.90
41447;DHT22;27185;52.040;4.490;2023-10-09T08:21:30;21.20;99.90
41447;DHT22;27185;52.040;4.490;2023-10-09T08:24:27;21.30;99.90
41447;DHT22;27185;52.040;4.490;2023-10-09T08:27:27;21.40;99.90
41447;DHT22;27185;52.040;4.490;2023-10-09T08:30:16;21.50;99.90
41447;DHT22;27185;52.040;4.490;2023-10-09T08:33:03;21.50;99.90
41447;DHT22;27185;52.040;4.490;2023-10-09T08:36:10;21.60;99.90
41447;DHT22;27185;52.040;4.490;2023-10-09T08:39:00;21.70;99.90
41447;DHT22;27185;52.040;4.490;2023-10-09T08:41:59;21.80;99.90
41447;DHT22;27185;52.040;4.490;2023-10-09T08:44:46;21.80;99.90
41447;DHT22;27185;52.040;4.490;2023-10-09T08:47:34;21.90;99.90
41447;DHT22;27185;52.040;4.490;2023-10-09T08:50:20;21.90;99.90
41447;DHT22;27185;52.040;4.490;2023-10-09T08:53:06;22.00;99.90
41447;DHT22;27185;52.040;4.490;2023-10-09T08:55:52;22.10;99.90
41447;DHT22;27185;52.040;4.490;2023-10-09T08:58:38;22.10;99.90
41447;DHT22;27185;52.040;4.490;2023-10-09T09:01:25;22.20;99.90
41447;DHT22;27185;52.040;4.490;2023-10-09T09:04:37;22.20;99.90
41447;DHT22;27185;52.040;4.490;2023-10-09T09:07:28;22.20;99.90
41447;DHT22;27185;52.040;4.490;2023-10-09T09:10:16;22.30;99.90
41447;DHT22;27185;52.040;4.490;2023-10-09T09:13:14;22.30;99.90
41447;DHT22;27185;52.040;4.490;2023-10-09T09:16:03;22.40;99.90
41447;DHT22;27185;52.040;4.490;2023-10-09T09:18:56;22.40;99.90
41447;DHT22;27185;52.040;4.490;2023-10-09T09:22:01;22.40;99.90
41447;DHT22;27185;52.040;4.490;2023-10-09T09:25:00;22.50;99.90
41447;DHT22;27185;52.040;4.490;2023-10-09T09:27:48;22.50;99.90
41447;DHT22;27185;52.040;4.490;2023-10-09T09:30:40;22.50;99.90
41447;DHT22;27185;52.040;4.490;2023-10-09T09:33:28;22.60;99.90
41447;DHT22;27185;52.040;4.490;2023-10-09T09:36:27;22.60;99.90
41447;DHT22;27185;52.040;4.490;2023-10-09T09:39:14;22.70;99.90
41447;DHT22;27185;52.040;4.490;2023-10-09T09:42:05;22.70;99.90
41447;DHT22;27185;52.040;4.490;2023-10-09T09:45:01;22.70;99.90
41447;DHT22;27185;52.040;4.490;2023-10-09T09:47:48;22.80;99.90
41447;DHT22;27185;52.040;4.490;2023-10-09T09:50:37;22.80;99.90
41447;DHT22;27185;52.040;4.490;2023-10-09T09:53:28;22.90;99.90
41447;DHT22;27185;52.040;4.490;2023-10-09T09:56:20;22.90;99.90
41447;DHT22;27185;52.040;4.490;2023-10-09T09:59:10;22.90;99.90
41447;DHT22;27185;52.040;4.490;2023-10-09T10:02:09;22.90;99.90
41447;DHT22;27185;52.040;4.490;2023-10-09T10:04:59;23.00;99.90
41447;DHT22;27185;52.040;4.490;2023-10-09T10:07:48;23.00;99.90
41447;DHT22;27185;52.040;4.490;2023-10-09T10:10:41;23.00;99.90
41447;DHT22;27185;52.040;4.490;2023-10-09T10:16:28;23.00;99.90
41447;DHT22;27185;52.040;4.490;2023-10-09T10:19:19;23.00;99.90
41447;DHT22;27185;52.040;4.490;2023-10-09T10:22:24;23.00;99.90
41447;DHT22;27185;52.040;4.490;2023-10-09T10:25:34;23.10;99.90
41447;DHT22;27185;52.040;4.490;2023-10-09T10:28:27;23.10;99.90
41447;DHT22;27185;52.040;4.490;2023-10-09T10:31:57;23.20;99.90
41447;DHT22;27185;52.040;4.490;2023-10-09T10:37:41;23.20;99.90
41447;DHT22;27185;52.040;4.490;2023-10-09T10:40:56;23.30;99.90
41447;DHT22;27185;52.040;4.490;2023-10-09T10:43:56;23.30;99.90
41447;DHT22;27185;52.040;4.490;2023-10-09T10:46:46;23.30;99.90
41447;DHT22;27185;52.040;4.490;2023-10-09T10:49:37;23.40;99.90
41447;DHT22;27185;52.040;4.490;2023-10-09T10:52:28;23.40;99.90
41447;DHT22;27185;52.040;4.490;2023-10-09T10:55:28;23.50;99.90
41447;DHT22;27185;52.040;4.490;2023-10-09T10:58:19;23.60;99.90
41447;DHT22;27185;52.040;4.490;2023-10-09T11:01:21;23.60;99.90
41447;DHT22;27185;52.040;4.490;2023-10-09T11:04:12;23.60;99.90
41447;DHT22;27185;52.040;4.490;2023-10-09T11:06:59;23.70;99.90
41447;DHT22;27185;52.040;4.490;2023-10-09T11:10:10;23.70;99.90
41447;DHT22;27185;52.040;4.490;2023-10-09T11:13:01;23.80;99.90
41447;DHT22;27185;52.040;4.490;2023-10-09T11:15:56;23.80;99.90
41447;DHT22;27185;52.040;4.490;2023-10-09T11:18:59;23.90;99.90
41447;DHT22;27185;52.040;4.490;2023-10-09T11:21:59;23.90;99.90
41447;DHT22;27185;52.040;4.490;2023-10-09T11:24:51;24.10;99.90
41447;DHT22;27185;52.040;4.490;2023-10-09T11:27:58;24.20;99.90
41447;DHT22;27185;52.040;4.490;2023-10-09T11:31:11;24.30;99.90
41447;DHT22;27185;52.040;4.490;2023-10-09T11:33:57;24.50;99.90
41447;DHT22;27185;52.040;4.490;2023-10-09T11:36:42;24.60;99.90
41447;DHT22;27185;52.040;4.490;2023-10-09T11:39:34;24.70;99.90
41447;DHT22;27185;52.040;4.490;2023-10-09T11:42:20;24.80;99.90
41447;DHT22;27185;52.040;4.490;2023-10-09T11:45:25;24.90;99.90
41447;DHT22;27185;52.040;4.490;2023-10-09T11:48:18;24.90;99.90
41447;DHT22;27185;52.040;4.490;2023-10-09T11:51:13;24.80;99.90
41447;DHT22;27185;52.040;4.490;2023-10-09T11:54:04;24.70;99.90
41447;DHT22;27185;52.040;4.490;2023-10-09T11:56:53;24.60;99.90
41447;DHT22;27185;52.040;4.490;2023-10-09T11:59:40;24.50;99.90
41447;DHT22;27185;52.040;4.490;2023-10-09T12:02:27;24.40;99.90
41447;DHT22;27185;52.040;4.490;2023-10-09T12:05:13;24.40;99.90
41447;DHT22;27185;52.040;4.490;2023-10-09T12:08:04;24.30;99.90
41447;DHT22;27185;52.040;4.490;2023-10-09T12:10:54;24.20;99.90
41447;DHT22;27185;52.040;4.490;2023-10-09T12:13:40;24.20;99.90
41447;DHT22;27185;52.040;4.490;2023-10-09T12:16:29;24.30;99.90
41447;DHT22;27185;52.040;4.490;2023-10-09T12:19:18;24.30;99.90
41447;DHT22;27185;52.040;4.490;2023-10-09T12:22:06;24.30;99.90
41447;DHT22;27185;52.040;4.490;2023-10-09T12:24:52;24.30;99.90
41447;DHT22;27185;52.040;4.490;2023-10-09T12:27:38;24.30;99.90
41447;DHT22;27185;52.040;4.490;2023-10-09T12:30:29;24.30;99.90
41447;DHT22;27185;52.040;4.490;2023-10-09T12:33:15;24.30;99.90
41447;DHT22;27185;52.040;4.490;2023-10-09T12:36:01;24.30;99.90
41447;DHT22;27185;52.040;4.490;2023-10-09T12:38:47;24.30;99.90
41447;DHT22;27185;52.040;4.490;2023-10-09T12:41:47;24.30;99.90
41447;DHT22;27185;52.040;4.490;2023-10-09T12:44:34;24.20;99.90
41447;DHT22;27185;52.040;4.490;2023-10-09T12:47:24;24.10;99.90
41447;DHT22;27185;52.040;4.490;2023-10-09T12:50:10;24.00;99.90
41447;DHT22;27185;52.040;4.490;2023-10-09T12:53:00;23.90;99.90
41447;DHT22;27185;52.040;4.490;2023-10-09T12:55:52;23.80;99.90
41447;DHT22;27185;52.040;4.490;2023-10-09T12:58:41;23.80;99.90
41447;DHT22;27185;52.040;4.490;2023-10-09T13:01:37;23.70;99.90
41447;DHT22;27185;52.040;4.490;2023-10-09T13:04:29;23.70;99.90
41447;DHT22;27185;52.040;4.490;2023-10-09T13:07:17;23.70;99.90
41447;DHT22;27185;52.040;4.490;2023-10-09T13:10:07;23.70;99.90
41447;DHT22;27185;52.040;4.490;2023-10-09T13:12:59;23.90;99.90
41447;DHT22;27185;52.040;4.490;2023-10-09T13:15:44;24.00;99.90
41447;DHT22;27185;52.040;4.490;2023-10-09T13:18:30;24.10;99.90
41447;DHT22;27185;52.040;4.490;2023-10-09T13:21:21;24.30;99.90
41447;DHT22;27185;52.040;4.490;2023-10-09T13:24:07;24.30;99.90
41447;DHT22;27185;52.040;4.490;2023-10-09T13:26:58;24.40;99.90
41447;DHT22;27185;52.040;4.490;2023-10-09T13:29:44;24.40;99.90
41447;DHT22;27185;52.040;4.490;2023-10-09T13:32:29;24.30;99.90
41447;DHT22;27185;52.040;4.490;2023-10-09T13:35:19;24.20;99.90
41447;DHT22;27185;52.040;4.490;2023-10-09T13:38:05;24.10;99.90
41447;DHT22;27185;52.040;4.490;2023-10-09T13:40:58;24.10;99.90
41447;DHT22;27185;52.040;4.490;2023-10-09T13:43:49;24.10;99.90
41447;DHT22;27185;52.040;4.490;2023-10-09T13:46:36;24.20;99.90
41447;DHT22;27185;52.040;4.490;2023-10-09T13:49:26;24.20;99.90
41447;DHT22;27185;52.040;4.490;2023-10-09T13:52:17;24.30;99.90
41447;DHT22;27185;52.040;4.490;2023-10-09T13:55:04;24.30;99.90
41447;DHT22;27185;52.040;4.490;2023-10-09T13:58:00;24.40;99.90
41447;DHT22;27185;52.040;4.490;2023-10-09T14:00:47;24.50;99.90
41447;DHT22;27185;52.040;4.490;2023-10-09T14:03:35;24.50;99.90
41447;DHT22;27185;52.040;4.490;2023-10-09T14:06:24;24.50;99.90
41447;DHT22;27185;52.040;4.490;2023-10-09T14:09:16;24.50;99.90
41447;DHT22;27185;52.040;4.490;2023-10-09T14:12:16;24.50;99.90
41447;DHT22;27185;52.040;4.490;2023-10-09T14:15:04;24.50;99.90
41447;DHT22;27185;52.040;4.490;2023-10-09T14:17:50;24.50;99.90
41447;DHT22;27185;52.040;4.490;2023-10-09T14:20:41;24.50;99.90
41447;DHT22;27185;52.040;4.490;2023-10-09T14:23:26;24.50;99.90
41447;DHT22;27185;52.040;4.490;2023-10-09T14:26:17;24.60;99.90
41447;DHT22;27185;52.040;4.490;2023-10-09T14:29:03;24.70;99.90
41447;DHT22;27185;52.040;4.490;2023-10-09T14:31:52;24.60;99.90
41447;DHT22;27185;52.040;4.490;2023-10-09T14:34:45;24.50;99.90
41447;DHT22;27185;52.040;4.490;2023-10-09T14:37:40;24.40;99.90
41447;DHT22;27185;52.040;4.490;2023-10-09T14:40:26;24.20;99.90
41447;DHT22;27185;52.040;4.490;2023-10-09T14:43:17;24.10;99.90
41447;DHT22;27185;52.040;4.490;2023-10-09T14:46:06;23.90;99.90
41447;DHT22;27185;52.040;4.490;2023-10-09T14:48:57;23.70;99.90
41447;DHT22;27185;52.040;4.490;2023-10-09T14:51:45;23.50;99.90
41447;DHT22;27185;52.040;4.490;2023-10-09T14:54:31;23.40;99.90
41447;DHT22;27185;52.040;4.490;2023-10-09T14:57:17;23.30;99.90
41447;DHT22;27185;52.040;4.490;2023-10-09T15:00:04;23.20;99.90
41447;DHT22;27185;52.040;4.490;2023-10-09T15:03:01;23.10;99.90
41447;DHT22;27185;52.040;4.490;2023-10-09T15:05:49;23.00;99.90
41447;DHT22;27185;52.040;4.490;2023-10-09T15:08:35;23.00;99.90
41447;DHT22;27185;52.040;4.490;2023-10-09T15:11:27;22.90;99.90
41447;DHT22;27185;52.040;4.490;2023-10-09T15:14:14;22.90;99.90
41447;DHT22;27185;52.040;4.490;2023-10-09T15:17:00;22.90;99.90
41447;DHT22;27185;52.040;4.490;2023-10-09T15:19:46;22.90;99.90
41447;DHT22;27185;52.040;4.490;2023-10-09T15:22:31;22.80;99.90
41447;DHT22;27185;52.040;4.490;2023-10-09T15:25:22;22.80;99.90
41447;DHT22;27185;52.040;4.490;2023-10-09T15:28:07;22.70;99.90
41447;DHT22;27185;52.040;4.490;2023-10-09T15:30:54;22.60;99.90
41447;DHT22;27185;52.040;4.490;2023-10-09T15:33:41;22.60;99.90
41447;DHT22;27185;52.040;4.490;2023-10-09T15:36:27;22.50;99.90
41447;DHT22;27185;52.040;4.490;2023-10-09T15:39:16;22.50;99.90
41447;DHT22;27185;52.040;4.490;2023-10-09T15:42:04;22.40;99.90
41447;DHT22;27185;52.040;4.490;2023-10-09T15:44:52;22.40;99.90
41447;DHT22;27185;52.040;4.490;2023-10-09T15:47:40;22.30;99.90
41447;DHT22;27185;52.040;4.490;2023-10-09T15:50:25;22.30;99.90
41447;DHT22;27185;52.040;4.490;2023-10-09T15:53:11;22.20;99.90
41447;DHT22;27185;52.040;4.490;2023-10-09T15:56:00;22.20;99.90
41447;DHT22;27185;52.040;4.490;2023-10-09T15:58:46;22.20;99.90
41447;DHT22;27185;52.040;4.490;2023-10-09T16:01:32;22.20;99.90
41447;DHT22;27185;52.040;4.490;2023-10-09T16:04:18;22.20;99.90
41447;DHT22;27185;52.040;4.490;2023-10-09T16:07:03;22.10;99.90
41447;DHT22;27185;52.040;4.490;2023-10-09T16:09:50;22.10;99.90
41447;DHT22;27185;52.040;4.490;2023-10-09T16:12:38;22.10;99.90
41447;DHT22;27185;52.040;4.490;2023-10-09T16:15:24;22.10;99.90
41447;DHT22;27185;52.040;4.490;2023-10-09T16:18:11;22.00;99.90
41447;DHT22;27185;52.040;4.490;2023-10-09T16:20:56;22.00;99.90
41447;DHT22;27185;52.040;4.490;2023-10-09T16:23:42;21.90;99.90
41447;DHT22;27185;52.040;4.490;2023-10-09T16:26:27;21.90;99.90
41447;DHT22;27185;52.040;4.490;2023-10-09T16:29:14;21.90;99.90
41447;DHT22;27185;52.040;4.490;2023-10-09T16:32:00;21.80;99.90
41447;DHT22;27185;52.040;4.490;2023-10-09T16:34:49;21.80;99.90
41447;DHT22;27185;52.040;4.490;2023-10-09T16:37:35;21.80;99.90
41447;DHT22;27185;52.040;4.490;2023-10-09T16:40:20;21.80;99.90
41447;DHT22;27185;52.040;4.490;2023-10-09T16:43:06;21.80;99.90
41447;DHT22;27185;52.040;4.490;2023-10-09T16:46:01;21.70;99.90
41447;DHT22;27185;52.040;4.490;2023-10-09T16:48:48;21.70;99.90
41447;DHT22;27185;52.040;4.490;2023-10-09T16:51:37;21.70;99.90
41447;DHT22;27185;52.040;4.490;2023-10-09T16:54:23;21.70;99.90
41447;DHT22;27185;52.040;4.490;2023-10-09T16:57:09;21.60;99.90
41447;DHT22;27185;52.040;4.490;2023-10-09T16:59:55;21.60;99.90
41447;DHT22;27185;52.040;4.490;2023-10-09T17:02:42;21.60;99.90
41447;DHT22;27185;52.040;4.490;2023-10-09T17:05:28;21.60;99.90
41447;DHT22;27185;52.040;4.490;2023-10-09T17:08:18;21.60;99.90
41447;DHT22;27185;52.040;4.490;2023-10-09T17:11:06;21.60;99.90
41447;DHT22;27185;52.040;4.490;2023-10-09T17:13:54;21.60;99.90
41447;DHT22;27185;52.040;4.490;2023-10-09T17:16:42;21.50;99.90
41447;DHT22;27185;52.040;4.490;2023-10-09T17:19:30;21.50;99.90
41447;DHT22;27185;52.040;4.490;2023-10-09T17:22:18;21.50;99.90
41447;DHT22;27185;52.040;4.490;2023-10-09T17:25:04;21.50;99.90
41447;DHT22;27185;52.040;4.490;2023-10-09T17:27:49;21.40;99.90
41447;DHT22;27185;52.040;4.490;2023-10-09T17:30:36;21.40;99.90
41447;DHT22;27185;52.040;4.490;2023-10-09T17:33:22;21.40;99.90
41447;DHT22;27185;52.040;4.490;2023-10-09T17:36:08;21.30;99.90
41447;DHT22;27185;52.040;4.490;2023-10-09T17:38:57;21.30;99.90
41447;DHT22;27185;52.040;4.490;2023-10-09T17:41:45;21.20;99.90
41447;DHT22;27185;52.040;4.490;2023-10-09T17:44:31;21.20;99.90
41447;DHT22;27185;52.040;4.490;2023-10-09T17:47:16;21.10;99.90
41447;DHT22;27185;52.040;4.490;2023-10-09T17:50:06;21.10;99.90
41447;DHT22;27185;52.040;4.490;2023-10-09T17:52:56;21.00;99.90
41447;DHT22;27185;52.040;4.490;2023-10-09T17:55:45;21.00;99.90
41447;DHT22;27185;52.040;4.490;2023-10-09T17:58:32;21.00;99.90
41447;DHT22;27185;52.040;4.490;2023-10-09T18:01:18;21.00;99.90
41447;DHT22;27185;52.040;4.490;2023-10-09T18:04:04;21.00;99.90
41447;DHT22;27185;52.040;4.490;2023-10-09T18:06:50;20.90;99.90